Time;durP1;ratioP1;P1;durP2;ratioP2;P2;SDS_P1;SDS_P2;PMS_P1;PMS_P2;Temp;Humidity;BMP_temperature;BMP_pressure;BME280_temperature;BME280_humidity;BME280_pressure;Samples;Min_cycle;Max_cycle;Signal;HPM_P1;HPM_P2
2022/06/28 00:02:03;;;;;;;5.87;5.27;;;;;;;19.54;100.00;62894.88;5050964;28;20207;-73
2022/06/28 00:04:31;;;;;;;5.37;4.87;;;;;;;19.52;100.00;62892.72;5050991;28;20197;-74
2022/06/28 00:06:58;;;;;;;5.90;5.27;;;;;;;19.59;100.00;62895.09;5050829;28;20204;-73
2022/06/28 00:09:26;;;;;;;10.43;5.00;;;;;;;19.59;100.00;62895.09;5050590;28;20614;-75
2022/06/28 00:11:54;;;;;;;6.60;4.80;;;;;;;18.66;100.00;62800.31;5053988;28;20201;-73
2022/06/28 00:17:06;;;;;;;6.00;4.73;;;;;;;19.40;100.00;62874.59;5054445;28;20271;-75
2022/06/28 00:19:33;;;;;;;6.67;5.00;;;;;;;19.38;100.00;62875.00;5054121;28;20232;-74
2022/06/28 00:22:02;;;;;;;8.00;4.87;;;;;;;19.30;100.00;62864.81;5054239;28;20212;-75
2022/06/28 00:24:31;;;;;;;5.77;4.80;;;;;;;19.24;100.00;62858.34;5054176;28;20212;-75
2022/06/28 00:26:59;;;;;;;6.07;4.87;;;;;;;19.30;100.00;62864.81;5054912;28;20201;-74
2022/06/28 00:29:27;;;;;;;10.10;6.03;;;;;;;19.23;100.00;62856.72;5064119;28;20243;-74
2022/06/28 00:31:55;;;;;;;9.70;5.47;;;;;;;19.24;100.00;62860.94;5078931;28;20204;-74
2022/06/28 00:34:22;;;;;;;5.70;5.03;;;;;;;19.20;100.00;62856.06;5067764;28;20201;-75
2022/06/28 00:36:51;;;;;;;5.87;5.30;;;;;;;19.22;100.00;62856.19;5044126;28;20259;-74
2022/06/28 00:39:18;;;;;;;9.27;5.17;;;;;;;19.12;100.00;62847.97;5053834;28;20715;-74
2022/06/28 00:41:48;;;;;;;7.63;4.77;;;;;;;19.00;100.00;62835.00;5053551;28;20201;-74
2022/06/28 00:44:15;;;;;;;7.20;4.23;;;;;;;18.89;100.00;62825.16;5053860;28;20692;-74
2022/06/28 00:46:43;;;;;;;5.33;4.83;;;;;;;18.52;100.00;62781.13;5053891;28;20668;-74
2022/06/28 00:49:11;;;;;;;6.20;4.87;;;;;;;18.65;100.00;62797.22;5053699;28;20213;-73
2022/06/28 00:51:39;;;;;;;5.63;4.60;;;;;;;18.63;100.00;62789.34;5053737;28;20228;-74
2022/06/28 00:54:07;;;;;;;7.40;4.90;;;;;;;18.52;100.00;62783.16;5053680;28;20582;-74
2022/06/28 00:56:35;;;;;;;4.90;4.50;;;;;;;18.57;100.00;62788.03;5054131;28;20212;-73
2022/06/28 00:59:03;;;;;;;7.57;4.87;;;;;;;18.52;100.00;62780.59;5052252;28;20606;-75
2022/06/28 01:01:31;;;;;;;7.80;4.83;;;;;;;18.49;100.00;62777.38;5053480;28;20201;-74
2022/06/28 01:03:58;;;;;;;8.33;4.87;;;;;;;18.32;100.00;62761.56;5056042;28;20201;-72
2022/06/28 01:06:26;;;;;;;6.20;5.13;;;;;;;18.37;100.00;62767.50;5053755;28;20213;-73
2022/06/28 01:08:54;;;;;;;5.50;4.93;;;;;;;18.32;100.00;62766.72;5053542;28;20216;-74
2022/06/28 01:11:21;;;;;;;5.40;4.90;;;;;;;18.28;100.00;62754.66;5053289;28;20212;-74
2022/06/28 01:13:53;;;;;;;6.13;4.80;;;;;;;18.28;100.00;62754.66;5053200;28;20212;-74
2022/06/28 01:16:23;;;;;;;9.83;5.73;;;;;;;18.25;100.00;62751.44;5045059;28;20212;-74
2022/06/28 01:18:50;;;;;;;8.87;4.70;;;;;;;18.16;100.00;62742.25;5053164;28;20221;-74
2022/06/28 01:21:18;;;;;;;5.87;5.03;;;;;;;18.22;100.00;62748.72;5044298;28;20554;-74
2022/06/28 01:23:48;;;;;;;8.40;5.23;;;;;;;18.27;100.00;62756.19;5047113;28;20205;-75
2022/06/28 01:26:17;;;;;;;6.63;5.40;;;;;;;18.19;100.00;62748.06;5052999;28;20193;-73
2022/06/28 01:28:46;;;;;;;6.43;5.33;;;;;;;18.16;100.00;62742.25;5052747;28;20629;-74
2022/06/28 01:31:13;;;;;;;5.77;4.97;;;;;;;18.04;100.00;62731.88;5052899;28;20208;-74
2022/06/28 01:33:40;;;;;;;7.60;5.27;;;;;;;18.08;100.00;62733.09;5052972;28;20201;-74
2022/06/28 01:36:09;;;;;;;5.30;4.90;;;;;;;18.01;100.00;62728.13;5052818;28;20670;-73
2022/06/28 01:38:38;;;;;;;7.03;5.17;;;;;;;17.99;100.00;62728.53;5052630;28;20585;-74
2022/06/28 01:41:07;;;;;;;5.40;4.90;;;;;;;17.91;100.00;62714.75;5052540;28;20617;-74
2022/06/28 01:43:36;;;;;;;5.60;4.90;;;;;;;17.48;100.00;62669.41;5052882;28;20589;-73
2022/06/28 01:46:05;;;;;;;6.30;5.37;;;;;;;18.02;100.00;62726.59;5052868;28;20205;-74
2022/06/28 01:48:33;;;;;;;8.17;5.20;;;;;;;17.65;100.00;62687.22;5052174;28;20687;-73
2022/06/28 01:51:01;;;;;;;7.80;4.83;;;;;;;18.05;100.00;62732.44;5052189;28;20676;-73
2022/06/28 01:53:28;;;;;;;7.03;4.90;;;;;;;18.00;100.00;62721.88;5038595;28;20596;-74
2022/06/28 01:55:55;;;;;;;5.83;4.70;;;;;;;18.01;100.00;62725.53;5052793;28;20216;-74
2022/06/28 01:58:23;;;;;;;7.60;5.33;;;;;;;17.80;100.00;62708.03;5052316;28;20212;-74
2022/06/28 02:00:50;;;;;;;7.80;5.10;;;;;;;17.60;100.00;62682.38;5052531;28;20307;-74
2022/06/28 02:03:17;;;;;;;8.53;5.37;;;;;;;17.42;100.00;62665.53;5052314;28;20588;-73
2022/06/28 02:05:44;;;;;;;6.73;5.30;;;;;;;17.67;100.00;62689.94;5052186;28;20205;-73
2022/06/28 02:08:11;;;;;;;5.60;5.10;;;;;;;17.86;100.00;62711.91;5052234;28;20213;-74
2022/06/28 02:10:38;;;;;;;5.40;4.90;;;;;;;17.92;100.00;62718.94;5063259;28;20215;-75
2022/06/28 02:13:05;;;;;;;7.43;5.27;;;;;;;17.89;100.00;62717.75;5054107;28;20266;-74
2022/06/28 02:15:33;;;;;;;6.13;4.93;;;;;;;17.87;100.00;62710.44;5052358;28;20208;-74
2022/06/28 02:18:01;;;;;;;7.53;5.50;;;;;;;17.97;100.00;62726.38;5052150;28;20221;-73
2022/06/28 02:20:28;;;;;;;6.97;4.80;;;;;;;17.85;100.00;62713.44;5052087;28;20224;-76
2022/06/28 02:22:59;;;;;;;7.43;5.50;;;;;;;17.52;100.00;62678.91;5051903;28;20718;-75
2022/06/28 02:25:26;;;;;;;7.27;5.20;;;;;;;18.03;100.00;62730.28;5050849;28;20575;-74
2022/06/28 02:27:54;;;;;;;6.23;5.03;;;;;;;18.08;100.00;62738.25;5051868;28;20201;-76
2022/06/28 02:30:23;;;;;;;8.17;4.77;;;;;;;18.10;100.00;62735.78;5052009;28;20236;-74
2022/06/28 02:32:51;;;;;;;6.83;5.60;;;;;;;18.14;100.00;62740.09;5051879;28;20200;-73
2022/06/28 02:40:48;;;;;;;6.17;5.30;;;;;;;18.01;100.00;62726.06;5051713;28;20228;-74
2022/06/28 02:43:15;;;;;;;7.43;4.90;;;;;;;17.88;100.00;62716.66;5051482;28;20212;-74
2022/06/28 02:45:43;;;;;;;9.50;5.60;;;;;;;17.52;100.00;62678.91;5051650;28;20200;-75
2022/06/28 02:48:12;;;;;;;7.00;5.20;;;;;;;17.93;100.00;62719.47;5051810;28;20205;-74
2022/06/28 02:50:41;;;;;;;6.03;5.43;;;;;;;18.06;100.00;62730.94;5038065;28;20668;-76
2022/06/28 02:53:09;;;;;;;11.23;5.60;;;;;;;17.58;100.00;62680.22;5051668;28;20224;-75
2022/06/28 02:55:36;;;;;;;9.07;5.50;;;;;;;17.96;100.00;62723.25;5051435;28;20228;-76
2022/06/28 02:58:03;;;;;;;6.10;5.50;;;;;;;17.98;100.00;62724.88;5051388;28;20214;-73
2022/06/28 03:00:31;;;;;;;12.03;6.03;;;;;;;17.92;100.00;62715.81;5051390;28;20290;-73
2022/06/28 03:02:58;;;;;;;7.30;5.67;;;;;;;17.84;100.00;62709.75;5051411;28;20251;-75
2022/06/28 03:05:26;;;;;;;6.23;5.33;;;;;;;17.75;100.00;62697.50;5052166;28;20251;-74
2022/06/28 03:07:54;;;;;;;9.50;6.47;;;;;;;17.14;100.00;62632.22;5051594;28;20198;-73
2022/06/28 03:10:21;;;;;;;11.57;5.53;;;;;;;17.94;100.00;62717.97;5051202;28;20300;-74
2022/06/28 03:12:48;;;;;;;11.60;7.17;;;;;;;17.67;100.00;62692.50;5051198;28;20244;-74
2022/06/28 03:15:16;;;;;;;12.43;7.87;;;;;;;17.45;100.00;62663.59;5051202;28;20750;-75
2022/06/28 03:17:43;;;;;;;15.33;9.40;;;;;;;17.01;100.00;62623.34;5051091;28;20193;-75
2022/06/28 03:20:11;;;;;;;14.50;8.47;;;;;;;17.44;100.00;62670.25;5051039;28;20642;-74
2022/06/28 03:22:39;;;;;;;12.40;9.40;;;;;;;17.57;100.00;62679.13;5051311;28;20201;-74
2022/06/28 03:25:08;;;;;;;23.73;9.43;;;;;;;17.67;100.00;62689.94;5051388;28;20201;-73
2022/06/28 03:27:35;;;;;;;13.73;9.40;;;;;;;17.64;100.00;62691.84;5040463;28;20659;-75
2022/06/28 03:30:02;;;;;;;15.30;9.53;;;;;;;17.73;100.00;62697.91;5040164;28;20251;-75
2022/06/28 03:32:29;;;;;;;16.43;9.53;;;;;;;17.79;100.00;62701.81;5051049;28;20204;-74
2022/06/28 03:34:56;;;;;;;15.27;8.47;;;;;;;17.88;100.00;62712.03;5051042;28;20208;-74
2022/06/28 03:37:24;;;;;;;15.17;9.27;;;;;;;17.89;100.00;62712.59;5051651;28;20671;-73
2022/06/28 03:39:53;;;;;;;18.50;10.20;;;;;;;17.77;100.00;62702.75;5051040;28;20224;-74
2022/06/28 03:42:20;;;;;;;21.67;11.57;;;;;;;17.81;100.00;62703.97;5051037;28;20258;-75
2022/06/28 03:44:47;;;;;;;19.87;10.50;;;;;;;17.81;100.00;62704.47;5050723;28;20196;-73
2022/06/28 03:47:15;;;;;;;17.33;11.10;;;;;;;17.81;100.00;62703.97;5054350;28;20207;-74
2022/06/28 03:49:42;;;;;;;16.70;10.50;;;;;;;17.86;100.00;62709.34;5054763;28;20211;-75
2022/06/28 03:52:09;;;;;;;16.53;9.40;;;;;;;17.65;100.00;62687.22;5054599;28;20217;-74
2022/06/28 03:54:36;;;;;;;15.90;9.00;;;;;;;17.72;100.00;62694.78;5054738;28;20656;-77
2022/06/28 03:57:06;;;;;;;17.67;8.30;;;;;;;17.06;100.00;62626.72;5054666;28;20209;-74
2022/06/28 03:59:33;;;;;;;9.60;7.80;;;;;;;17.88;100.00;62714.63;5054707;28;20232;-75
2022/06/28 04:02:00;;;;;;;13.17;8.07;;;;;;;17.92;100.00;62718.94;5054916;28;20201;-74
2022/06/28 04:04:27;;;;;;;12.30;7.80;;;;;;;17.94;100.00;62723.13;5054693;28;20205;-74
2022/06/28 04:06:55;;;;;;;9.87;7.53;;;;;;;17.41;100.00;62659.28;5054280;28;20737;-75
2022/06/28 04:09:23;;;;;;;14.30;7.83;;;;;;;17.94;100.00;62718.53;5054686;28;20209;-74
2022/06/28 04:11:52;;;;;;;16.17;8.00;;;;;;;18.27;100.00;62756.19;5054540;28;20209;-73
2022/06/28 04:14:21;;;;;;;17.30;8.00;;;;;;;18.45;100.00;62773.03;5054794;28;20211;-75
2022/06/28 04:16:48;;;;;;;17.67;8.60;;;;;;;18.52;100.00;62780.59;5054367;28;20204;-77
2022/06/28 04:19:16;;;;;;;12.57;7.97;;;;;;;18.66;100.00;62798.28;5054419;28;20209;-74
2022/06/28 04:21:46;;;;;;;19.57;8.93;;;;;;;18.30;100.00;62757.38;5053073;28;20205;-74
2022/06/28 04:24:13;;;;;;;19.87;9.53;;;;;;;18.60;100.00;62794.38;5053635;28;20201;-75
2022/06/28 04:26:40;;;;;;;16.77;9.57;;;;;;;19.11;100.00;62843.78;5054160;28;20258;-75
2022/06/28 04:29:07;;;;;;;23.67;9.47;;;;;;;19.30;100.00;62864.81;5053918;28;20773;-75
2022/06/28 04:31:36;;;;;;;24.30;9.20;;;;;;;19.43;100.00;62878.34;5053787;28;20224;-75
2022/06/28 04:34:03;;;;;;;16.80;8.53;;;;;;;19.54;100.00;62887.13;5053801;28;20193;-74
2022/06/28 04:36:31;;;;;;;17.13;9.33;;;;;;;19.53;100.00;62889.16;5053860;28;20254;-74
2022/06/28 04:38:57;;;;;;;15.73;8.67;;;;;;;19.81;100.00;62924.03;5053995;28;20204;-73
2022/06/28 04:41:25;;;;;;;12.77;8.30;;;;;;;19.86;100.00;62926.88;5054120;28;20247;-75
2022/06/28 04:43:53;;;;;;;15.23;8.90;;;;;;;19.87;100.00;62933.13;5053826;28;20629;-73
2022/06/28 04:46:21;;;;;;;15.10;9.73;;;;;;;19.88;100.00;62931.63;5053731;28;20197;-73
2022/06/28 04:48:50;;;;;;;19.10;8.87;;;;;;;20.10;100.00;62950.22;5053943;28;20564;-75
2022/06/28 04:51:17;;;;;;;12.40;8.10;;;;;;;20.25;100.00;62961.28;5053523;28;20220;-74
2022/06/28 04:53:47;;;;;;;18.27;8.20;;;;;;;20.44;100.00;62987.03;5053646;28;20682;-73
2022/06/28 04:56:15;;;;;;;17.00;8.37;;;;;;;20.66;100.00;63010.28;5052656;28;20254;-73
2022/06/28 04:58:42;;;;;;;13.40;8.57;;;;;;;20.71;100.00;63018.81;5053646;28;20201;-75
2022/06/28 05:01:09;;;;;;;13.40;8.67;;;;;;;20.71;100.00;63015.66;5053348;28;20228;-74
2022/06/28 05:03:38;;;;;;;15.27;8.40;;;;;;;20.38;100.00;62983.13;5053661;28;20197;-75
2022/06/28 05:06:06;;;;;;;19.43;7.57;;;;;;;21.11;100.00;63053.25;5053989;28;20204;-74
2022/06/28 05:08:34;;;;;;;13.83;8.37;;;;;;;21.39;100.00;63088.75;5054358;28;20205;-74
2022/06/28 05:11:01;;;;;;;14.27;8.00;;;;;;;21.52;100.00;63108.53;5053366;28;20688;-75
2022/06/28 05:13:29;;;;;;;14.07;7.77;;;;;;;21.46;100.00;63093.72;5053233;28;20201;-73
2022/06/28 05:15:56;;;;;;;18.97;8.10;;;;;;;21.70;100.00;63122.28;5053218;28;20220;-74
2022/06/28 05:18:22;;;;;;;10.87;7.70;;;;;;;21.69;100.00;63126.41;5053212;28;20201;-74
2022/06/28 05:20:50;;;;;;;14.63;8.27;;;;;;;21.77;100.00;63129.88;5052877;28;20340;-74
2022/06/28 05:23:19;;;;;;;17.63;8.10;;;;;;;21.78;100.00;63130.94;5053228;28;20193;-73
2022/06/28 05:25:47;;;;;;;15.53;8.47;;;;;;;21.91;100.00;63145.06;5051933;28;20209;-74
2022/06/28 05:28:14;;;;;;;12.73;8.57;;;;;;;22.00;100.00;63154.25;5052805;28;20208;-75
2022/06/28 05:30:41;;;;;;;12.30;8.23;;;;;;;22.11;100.00;63171.34;5052935;28;20193;-74
2022/06/28 05:33:08;;;;;;;9.87;7.63;;;;;;;22.40;100.00;63197.56;5053102;28;20205;-74
2022/06/28 05:35:36;;;;;;;15.40;8.10;;;;;;;22.61;100.00;63220.91;5053052;28;20232;-74
2022/06/28 05:38:05;;;;;;;13.03;8.20;;;;;;;22.72;100.00;63226.53;5052689;28;20197;-74
2022/06/28 05:40:34;;;;;;;15.30;8.87;;;;;;;22.67;100.00;63227.41;5052847;28;20692;-75
2022/06/28 05:43:00;;;;;;;19.10;8.90;;;;;;;22.70;100.00;63232.16;5052683;28;20677;-76
2022/06/28 05:45:27;;;;;;;11.90;8.27;;;;;;;23.00;100.00;63260.00;5052710;28;20212;-73
2022/06/28 05:47:55;;;;;;;18.57;8.97;;;;;;;22.83;100.00;63246.78;5052799;28;20212;-73
2022/06/28 05:50:24;;;;;;;17.03;9.17;;;;;;;23.05;100.00;63264.91;5052655;28;20204;-75
2022/06/28 05:52:51;;;;;;;17.70;8.60;;;;;;;23.22;100.00;63288.53;5052619;28;20220;-73
2022/06/28 05:55:18;;;;;;;18.87;8.07;;;;;;;23.13;100.00;63276.16;5052442;28;20212;-74
2022/06/28 05:57:47;;;;;;;13.00;8.57;;;;;;;23.26;100.00;63293.41;5052597;28;20555;-75
2022/06/28 06:00:15;;;;;;;18.30;9.43;;;;;;;23.24;100.00;63288.09;5052296;28;20232;-76
2022/06/28 06:02:42;;;;;;;15.80;8.77;;;;;;;23.53;100.00;63316.97;5052278;28;20676;-73
2022/06/28 06:05:11;;;;;;;20.13;8.80;;;;;;;24.01;100.00;63376.28;5052372;28;20201;-74
2022/06/28 06:07:38;;;;;;;20.93;9.03;;;;;;;24.12;100.00;63383.59;5052167;28;20219;-74
2022/06/28 06:10:06;;;;;;;14.13;8.47;;;;;;;24.44;100.00;63417.22;5051887;28;20584;-75
2022/06/28 06:12:33;;;;;;;16.83;8.27;;;;;;;24.54;100.00;63422.84;5051960;28;20196;-74
2022/06/28 06:15:02;;;;;;;15.20;9.93;;;;;;;24.51;100.00;63424.81;5052216;28;20201;-74
2022/06/28 06:17:29;;;;;;;14.43;9.80;;;;;;;24.52;100.00;63431.66;5052197;28;20200;-74
2022/06/28 06:19:56;;;;;;;17.53;9.70;;;;;;;24.51;100.00;63424.81;5051956;28;20209;-74
2022/06/28 06:22:23;;;;;;;13.47;9.87;;;;;;;24.52;100.00;63426.44;5051951;28;20584;-75
2022/06/28 06:24:50;;;;;;;14.63;9.20;;;;;;;24.73;100.00;63449.25;5051022;28;20204;-75
2022/06/28 06:27:17;;;;;;;16.53;10.30;;;;;;;24.20;100.00;63391.72;5051856;28;20212;-75
2022/06/28 06:29:44;;;;;;;11.67;9.30;;;;;;;24.60;100.00;63435.13;5051604;28;20613;-74
2022/06/28 06:32:12;;;;;;;13.57;10.00;;;;;;;24.85;100.00;63462.28;5051838;28;20766;-73
2022/06/28 06:34:39;;;;;;;12.40;9.63;;;;;;;25.21;100.00;63500.84;5051568;28;20212;-75
2022/06/28 06:37:06;;;;;;;14.10;9.80;;;;;;;25.60;100.00;63543.22;5052081;28;20213;-74
2022/06/28 06:39:34;;;;;;;15.40;10.17;;;;;;;25.66;100.00;63549.75;5051629;28;20657;-74
2022/06/28 06:42:01;;;;;;;12.13;9.70;;;;;;;25.72;100.00;63556.25;5051583;28;20235;-74
2022/06/28 06:44:28;;;;;;;13.53;10.10;;;;;;;26.04;100.00;63589.94;5051640;28;20200;-74
2022/06/28 06:46:55;;;;;;;18.37;10.43;;;;;;;26.28;100.00;63621.28;5051612;28;20212;-74
2022/06/28 06:49:25;;;;;;;16.33;10.50;;;;;;;26.42;100.00;63628.66;5051583;28;20227;-74
2022/06/28 06:51:52;;;;;;;13.27;9.63;;;;;;;26.45;100.00;63637.16;5051141;28;20226;-75
2022/06/28 06:54:20;;;;;;;14.30;10.00;;;;;;;26.74;100.00;63663.47;5051439;28;20254;-75
2022/06/28 06:56:47;;;;;;;14.40;10.27;;;;;;;26.86;100.00;63676.53;5051146;28;20201;-74
2022/06/28 06:59:16;;;;;;;17.50;10.47;;;;;;;26.79;100.00;63671.53;5051344;28;20568;-76
2022/06/28 07:01:43;;;;;;;18.30;9.80;;;;;;;26.42;100.00;63637.03;5051048;28;20277;-76
2022/06/28 07:04:10;;;;;;;14.43;11.53;;;;;;;26.24;100.00;63612.25;5051676;28;20224;-74
2022/06/28 07:06:39;;;;;;;12.20;9.73;;;;;;;27.03;100.00;63697.06;5051865;28;20216;-74
2022/06/28 07:09:06;;;;;;;17.93;9.57;;;;;;;27.39;100.00;63736.81;5051653;28;20212;-75
2022/06/28 07:11:33;;;;;;;18.03;9.37;;;;;;;27.77;100.00;63774.47;5051153;28;20205;-74
2022/06/28 07:14:01;;;;;;;18.00;10.30;;;;;;;27.97;100.00;63793.63;5051176;28;20684;-74
2022/06/28 07:16:29;;;;;;;19.73;9.97;;;;;;;28.12;100.00;63815.19;5051194;28;20632;-73
2022/06/28 07:18:56;;;;;;;12.80;9.47;;;;;;;28.02;100.00;63804.31;5051109;28;20227;-73
2022/06/28 07:21:24;;;;;;;10.93;9.27;;;;;;;27.80;100.00;63780.34;5053581;28;20324;-74
2022/06/28 07:23:52;;;;;;;12.60;9.37;;;;;;;28.12;100.00;63820.44;5054256;28;20358;-73
2022/06/28 07:26:19;;;;;;;12.03;8.77;;;;;;;27.82;100.00;63783.06;5055631;28;20208;-74
2022/06/28 07:28:47;;;;;;;14.93;8.97;;;;;;;27.52;100.00;63750.97;5054605;28;20585;-75
2022/06/28 07:31:15;;;;;;;16.87;8.80;;;;;;;28.07;100.00;63815.00;5054906;28;20261;-75
2022/06/28 07:33:42;;;;;;;13.90;8.63;;;;;;;28.33;100.00;63843.31;5054645;28;20217;-74
2022/06/28 07:36:10;;;;;;;14.93;7.40;;;;;;;28.25;100.00;63832.50;5054767;28;20212;-76
2022/06/28 07:38:38;;;;;;;12.63;8.20;;;;;;;28.51;100.00;63862.91;5054546;28;20270;-73
2022/06/28 07:41:08;;;;;;;9.40;6.87;;;;;;;28.51;100.00;63857.13;5054273;28;20267;-75
2022/06/28 07:43:34;;;;;;;9.50;7.17;;;;;;;28.89;100.00;63899.09;5054340;28;20205;-74
2022/06/28 07:46:02;;;;;;;15.53;7.90;;;;;;;28.60;100.00;63870.09;5054389;28;20247;-74
2022/06/28 07:48:29;;;;;;;15.60;7.67;;;;;;;28.28;100.00;63837.84;5054117;28;20204;-74
2022/06/28 07:53:40;;;;;;;20.87;8.47;;;;;;;27.93;100.00;63794.50;5054246;28;20215;-75
2022/06/28 07:56:08;;;;;;;17.47;8.20;;;;;;;28.01;100.00;63803.75;5053786;28;20205;-75
2022/06/28 07:58:36;;;;;;;10.63;7.07;;;;;;;28.31;100.00;63835.88;5054207;28;20212;-74
2022/06/28 08:01:03;;;;;;;15.70;7.03;;;;;;;28.16;100.00;63822.72;5053773;28;20250;-75
2022/06/28 08:03:30;;;;;;;14.83;7.00;;;;;;;28.57;100.00;63868.91;5054093;28;20209;-75
2022/06/28 08:05:56;;;;;;;11.27;6.77;;;;;;;28.60;100.00;63872.72;5053944;28;20200;-75
2022/06/28 08:08:23;;;;;;;7.83;6.43;;;;;;;28.49;100.00;63855.50;5053914;28;20201;-74
2022/06/28 08:10:50;;;;;;;14.00;7.53;;;;;;;28.44;100.00;63850.03;5053750;28;20208;-74
2022/06/28 08:13:19;;;;;;;15.03;6.80;;;;;;;28.34;100.00;63844.38;5053696;28;20209;-74
2022/06/28 08:15:47;;;;;;;12.47;6.90;;;;;;;28.74;100.00;63884.81;5053863;28;20193;-75
2022/06/28 08:18:14;;;;;;;15.77;7.03;;;;;;;28.74;100.00;63882.19;5053880;28;20205;-73
2022/06/28 08:20:41;;;;;;;8.37;6.10;;;;;;;28.95;100.00;63905.63;5053643;28;20201;-76
2022/06/28 08:23:09;;;;;;;7.27;6.27;;;;;;;29.24;100.00;63934.06;5053574;28;20197;-74
2022/06/28 08:25:36;;;;;;;9.27;6.23;;;;;;;29.24;100.00;63933.53;5052660;28;20197;-75
2022/06/28 08:28:03;;;;;;;6.67;4.50;;;;;;;29.64;100.00;63977.13;5053794;28;20254;-74
2022/06/28 08:30:32;;;;;;;8.97;5.70;;;;;;;29.93;100.00;64008.75;5053565;28;20616;-75
2022/06/28 08:32:58;;;;;;;11.03;5.37;;;;;;;30.35;100.00;64056.66;5053172;28;20215;-76
2022/06/28 08:35:26;;;;;;;10.23;5.20;;;;;;;30.54;100.00;64077.94;5053850;28;20197;-74
2022/06/28 08:37:53;;;;;;;9.63;5.63;;;;;;;30.81;100.00;64102.13;5053365;28;20201;-74
2022/06/28 08:40:25;;;;;;;12.80;6.10;;;;;;;30.83;100.00;64109.56;5053490;28;20208;-73
2022/06/28 08:42:55;;;;;;;19.23;6.67;;;;;;;30.76;100.00;64106.66;5053391;28;20588;-74
2022/06/28 08:45:22;;;;;;;9.23;6.07;;;;;;;31.18;100.00;64147.25;5053149;28;20216;-74
2022/06/28 08:47:53;;;;;;;10.33;5.57;;;;;;;30.99;100.00;64128.59;5053270;28;20211;-74
2022/06/28 08:50:30;;;;;;;10.13;5.60;;;;;;;30.69;100.00;64094.28;5052973;28;20697;-74
2022/06/28 08:53:03;;;;;;;13.97;5.60;;;;;;;30.62;100.00;64086.66;5053300;28;20231;-76
2022/06/28 08:55:32;;;;;;;8.37;4.90;;;;;;;30.46;100.00;64069.22;5053054;28;20206;-74
2022/06/28 08:58:02;;;;;;;9.20;5.43;;;;;;;30.67;100.00;64091.56;5053048;28;20203;-76
2022/06/28 09:00:29;;;;;;;7.07;5.10;;;;;;;30.57;100.00;64080.66;5052991;28;20203;-75
2022/06/28 09:02:58;;;;;;;9.20;4.83;;;;;;;30.73;100.00;64098.66;5052739;28;20251;-73
2022/06/28 09:05:29;;;;;;;6.83;5.03;;;;;;;30.98;100.00;64122.22;5054028;28;20203;-76
2022/06/28 09:07:57;;;;;;;12.93;5.57;;;;;;;31.10;100.00;64143.22;5052945;28;20261;-76
2022/06/28 09:10:24;;;;;;;9.17;5.17;;;;;;;31.14;100.00;64142.31;5052425;28;20207;-75
2022/06/28 09:13:05;;;;;;;9.13;4.77;;;;;;;30.97;100.00;64123.78;5052840;28;20738;-75
2022/06/28 09:15:46;;;;;;;9.20;4.50;;;;;;;30.68;100.00;64092.66;5052632;28;20680;-75
2022/06/28 09:18:17;;;;;;;19.63;5.27;;;;;;;30.57;100.00;64081.19;5053060;28;20312;-75
2022/06/28 09:20:44;;;;;;;11.07;4.90;;;;;;;30.39;100.00;64061.56;5052703;28;20210;-75
2022/06/28 09:23:34;;;;;;;10.67;4.97;;;;;;;30.21;100.00;64039.28;5052497;28;20320;-77
2022/06/28 09:26:06;;;;;;;8.43;4.70;;;;;;;30.52;100.00;64075.19;5042041;28;20212;-74
2022/06/28 09:28:35;;;;;;;8.10;4.73;;;;;;;30.84;100.00;64104.88;5053019;28;20210;-75
2022/06/28 09:31:18;;;;;;;8.93;5.07;;;;;;;31.01;100.00;64128.69;5052880;28;20207;-74
2022/06/28 09:33:49;;;;;;;7.17;4.73;;;;;;;30.70;100.00;64095.38;5039555;28;20201;-75
2022/06/28 09:36:17;;;;;;;9.97;5.60;;;;;;;30.66;100.00;64096.28;5052511;28;20288;-75
2022/06/28 09:38:44;;;;;;;8.70;5.30;;;;;;;31.02;100.00;64129.22;5052246;28;20202;-74
2022/06/28 09:41:25;;;;;;;10.73;5.23;;;;;;;31.42;100.00;64178.19;5052267;28;20297;-73
2022/06/28 09:43:58;;;;;;;6.30;4.33;;;;;;;31.42;100.00;64167.63;5051321;28;20291;-74
2022/06/28 09:46:26;;;;;;;7.50;4.30;;;;;;;31.84;100.00;64218.75;5052062;28;20238;-74
2022/06/28 09:48:58;;;;;;;4.57;4.17;;;;;;;31.49;100.00;64175.81;5052129;28;20200;-74
2022/06/28 09:51:27;;;;;;;5.20;4.13;;;;;;;31.74;100.00;64207.84;5052099;28;20311;-77
2022/06/28 09:53:57;;;;;;;7.53;4.53;;;;;;;32.22;100.00;64257.09;5051944;28;20293;-74
2022/06/28 09:56:28;;;;;;;5.70;4.40;;;;;;;32.63;100.00;64298.72;5051814;28;20307;-74
2022/06/28 09:58:56;;;;;;;7.90;4.40;;;;;;;32.36;100.00;64275.59;5051658;28;20210;-75
2022/06/28 10:01:24;;;;;;;4.60;4.20;;;;;;;32.12;100.00;64249.38;5051728;28;20221;-75
2022/06/28 10:03:51;;;;;;;8.53;4.47;;;;;;;32.21;100.00;64259.22;5051596;28;20205;-73
2022/06/28 10:06:21;;;;;;;9.20;4.20;;;;;;;32.35;100.00;64277.13;5051911;28;20656;-75
2022/06/28 10:08:49;;;;;;;10.83;4.77;;;;;;;32.47;100.00;64284.44;5051374;28;20201;-74
2022/06/28 10:11:17;;;;;;;5.43;4.80;;;;;;;31.10;100.00;64135.31;5051309;28;20260;-75
2022/06/28 10:16:45;;;;;;;5.37;4.47;;;;;;;32.40;100.00;64274.69;5051752;28;20219;-75
2022/06/28 10:19:14;;;;;;;9.97;4.30;;;;;;;32.29;100.00;64262.13;5051468;28;20268;-75
2022/06/28 10:21:48;;;;;;;6.47;4.03;;;;;;;32.72;100.00;64317.03;5051668;28;20237;-74
2022/06/28 10:24:15;;;;;;;13.07;4.17;;;;;;;33.02;100.00;64344.03;5050896;28;20202;-74
2022/06/28 10:26:46;;;;;;;8.20;3.77;;;;;;;32.62;100.00;64305.56;5051616;28;20203;-74
2022/06/28 10:29:16;;;;;;;4.43;4.00;;;;;;;32.95;100.00;64338.97;5051236;28;20313;-74
2022/06/28 10:31:45;;;;;;;7.03;4.60;;;;;;;32.54;100.00;64296.81;5051391;28;20216;-75
2022/06/28 10:34:14;;;;;;;4.33;3.93;;;;;;;32.40;100.00;64279.94;5050853;28;20198;-75
2022/06/28 10:36:44;;;;;;;7.00;4.37;;;;;;;31.67;100.00;64198.09;5051486;28;20232;-75
2022/06/28 10:39:19;;;;;;;10.77;4.60;;;;;;;31.91;100.00;64226.41;5051083;28;20262;-73
2022/06/28 10:41:48;;;;;;;10.30;4.47;;;;;;;31.41;100.00;64171.81;5051134;28;20622;-73
2022/06/28 10:44:16;;;;;;;4.30;3.90;;;;;;;30.63;100.00;64089.81;5051238;28;20197;-75
2022/06/28 10:46:52;;;;;;;5.70;4.03;;;;;;;31.03;100.00;64128.22;5051127;28;20585;-73
2022/06/28 10:49:21;;;;;;;7.17;4.30;;;;;;;31.28;100.00;64158.16;5051018;28;20195;-75
2022/06/28 10:52:10;;;;;;;8.27;4.90;;;;;;;31.86;100.00;64220.41;5050885;28;20228;-75
2022/06/28 10:54:40;;;;;;;6.47;4.33;;;;;;;32.28;100.00;64266.84;5050785;28;20574;-74
2022/06/28 10:57:34;;;;;;;13.10;4.77;;;;;;;31.99;100.00;64234.63;5050749;28;20201;-74
2022/06/28 11:00:04;;;;;;;4.77;4.10;;;;;;;31.21;100.00;64147.34;5037853;28;20703;-75
2022/06/28 11:02:46;;;;;;;11.97;4.30;;;;;;;30.74;100.00;64097.13;5050918;28;20234;-74
2022/06/28 11:05:14;;;;;;;7.47;4.63;;;;;;;30.83;100.00;64109.56;5050904;28;20278;-75
2022/06/28 11:07:44;;;;;;;4.93;4.43;;;;;;;30.77;100.00;64103.00;5050788;28;20214;-75
2022/06/28 11:10:16;;;;;;;6.27;5.50;;;;;;;31.00;100.00;64127.59;5051029;28;20670;-75
2022/06/28 11:12:46;;;;;;;5.93;4.70;;;;;;;31.33;100.00;64160.44;5050711;28;20670;-75
2022/06/28 11:15:35;;;;;;;6.80;4.57;;;;;;;32.18;100.00;64255.91;5050845;28;20201;-75
2022/06/28 11:18:03;;;;;;;8.40;4.17;;;;;;;32.28;100.00;64263.66;5050594;28;20231;-74
2022/06/28 11:20:31;;;;;;;8.83;5.07;;;;;;;32.74;100.00;64310.75;5050933;28;20338;-75
2022/06/28 11:22:58;;;;;;;13.90;4.17;;;;;;;32.62;100.00;64300.28;5050797;28;20236;-76
2022/06/28 11:27:19;;;;;;;8.47;4.40;;;;;;;31.91;100.00;64226.41;5049587;28;20212;-76
2022/06/28 11:28:17;;;;;;;5.47;3.87;;;;;;;31.40;100.00;64171.28;5050527;28;20316;-74
2022/06/28 11:30:44;;;;;;;7.93;3.90;;;;;;;31.22;100.00;64151.59;5050456;28;20660;-74
2022/06/28 11:33:12;;;;;;;5.73;4.17;;;;;;;31.45;100.00;64176.19;5050601;28;20213;-74
2022/06/28 11:35:40;;;;;;;6.00;4.50;;;;;;;31.41;100.00;64171.81;5050543;28;20253;-77
2022/06/28 11:38:09;;;;;;;7.53;4.00;;;;;;;32.09;100.00;64245.53;5050690;28;20212;-76
2022/06/28 11:40:44;;;;;;;6.20;4.30;;;;;;;32.16;100.00;64253.19;5050703;28;20255;-75
2022/06/28 11:43:13;;;;;;;6.73;4.10;;;;;;;31.42;100.00;64173.47;5050501;28;20633;-74